createdAt,value
2022-09-12T00:00:35.462Z,997.74
2022-09-12T00:01:35.478Z,997.68
2022-09-12T00:02:35.459Z,997.68
2022-09-12T00:03:35.444Z,997.66
2022-09-12T00:04:35.520Z,997.70
2022-09-12T00:05:35.428Z,997.65
2022-09-12T00:06:35.435Z,997.67
2022-09-12T00:07:35.406Z,997.70
2022-09-12T00:08:35.451Z,997.69
2022-09-12T00:09:35.427Z,997.68
2022-09-12T00:10:35.397Z,997.65
2022-09-12T00:11:35.376Z,997.67
2022-09-12T00:12:35.380Z,997.73
2022-09-12T00:13:38.392Z,997.68
2022-09-12T00:14:37.397Z,997.70
2022-09-12T00:15:35.351Z,997.63
2022-09-12T00:16:35.413Z,997.70
2022-09-12T00:17:35.349Z,997.60
2022-09-12T00:18:35.396Z,997.65
2022-09-12T00:19:35.313Z,997.62
2022-09-12T00:20:35.308Z,997.58
2022-09-12T00:21:35.300Z,997.56
2022-09-12T00:22:35.289Z,997.48
2022-09-12T00:23:35.351Z,997.52
2022-09-12T00:24:35.291Z,997.53
2022-09-12T00:25:35.291Z,997.48
2022-09-12T00:26:35.264Z,997.52
2022-09-12T00:27:35.260Z,997.55
2022-09-12T00:28:35.335Z,997.48
2022-09-12T00:29:35.233Z,997.54
2022-09-12T00:30:35.229Z,997.49
2022-09-12T00:31:35.244Z,997.53
2022-09-12T00:32:35.210Z,997.55
2022-09-12T00:33:35.256Z,997.50
2022-09-12T00:34:35.200Z,997.53
2022-09-12T00:35:35.181Z,997.43
2022-09-12T00:36:35.189Z,997.48
2022-09-12T00:37:35.167Z,997.42
2022-09-12T00:38:35.241Z,997.46
2022-09-12T00:39:35.171Z,997.46
2022-09-12T00:40:35.145Z,997.39
2022-09-12T00:41:35.134Z,997.45
2022-09-12T00:42:35.125Z,997.41
2022-09-12T00:43:35.142Z,997.49
2022-09-12T00:44:35.119Z,997.50
2022-09-12T00:45:35.171Z,997.42
2022-09-12T00:46:35.104Z,997.47
2022-09-12T00:47:35.086Z,997.45
2022-09-12T00:48:35.194Z,997.39
2022-09-12T00:49:35.076Z,997.40
2022-09-12T00:50:35.113Z,997.36
2022-09-12T00:51:35.069Z,997.35
2022-09-12T00:52:35.050Z,997.39
2022-09-12T00:53:35.082Z,997.31
2022-09-12T00:54:35.035Z,997.29
2022-09-12T00:55:35.051Z,997.30
2022-09-12T00:56:35.025Z,997.20
2022-09-12T00:57:35.021Z,997.29
2022-09-12T00:58:35.069Z,997.25
2022-09-12T00:59:34.997Z,997.21
2022-09-12T01:00:34.990Z,997.23
2022-09-12T01:01:35.096Z,997.19
2022-09-12T01:02:35.113Z,997.25
2022-09-12T01:03:34.974Z,997.23
2022-09-12T01:04:34.978Z,997.24
2022-09-12T01:05:34.969Z,997.18
2022-09-12T01:06:34.958Z,997.18
2022-09-12T01:07:39.369Z,997.20
2022-09-12T01:08:36.933Z,997.13
2022-09-12T01:09:34.961Z,997.13
2022-09-12T01:10:34.924Z,997.15
2022-09-12T01:11:34.907Z,997.12
2022-09-12T01:12:34.928Z,997.07
2022-09-12T01:13:34.886Z,997.11
2022-09-12T01:14:34.886Z,997.09
2022-09-12T01:15:34.878Z,997.05
2022-09-12T01:16:34.891Z,997.03
2022-09-12T01:17:34.902Z,997.00
2022-09-12T01:18:34.899Z,996.99
2022-09-12T01:19:34.850Z,997.06
2022-09-12T01:20:34.847Z,997.06
2022-09-12T01:21:34.854Z,997.04
2022-09-12T01:22:34.860Z,997.02
2022-09-12T01:23:34.839Z,997.04
2022-09-12T01:24:34.813Z,997.04
2022-09-12T01:25:34.798Z,997.03
2022-09-12T01:26:34.796Z,997.03
2022-09-12T01:27:34.800Z,997.05
2022-09-12T01:28:34.828Z,997.04
2022-09-12T01:29:34.772Z,997.13
2022-09-12T01:30:34.771Z,997.12
2022-09-12T01:31:34.772Z,997.10
2022-09-12T01:32:34.749Z,997.17
2022-09-12T01:33:34.763Z,997.20
2022-09-12T01:34:34.732Z,997.20
2022-09-12T01:35:34.722Z,997.23
2022-09-12T01:36:34.746Z,997.19
2022-09-12T01:37:34.714Z,997.17
2022-09-12T01:38:34.791Z,997.21
2022-09-12T01:39:34.690Z,997.14
2022-09-12T01:40:34.699Z,997.14
2022-09-12T01:41:34.680Z,997.15
2022-09-12T01:42:34.679Z,997.08
2022-09-12T01:43:34.693Z,997.13
2022-09-12T01:44:34.662Z,997.09
2022-09-12T01:45:34.672Z,997.08
2022-09-12T01:46:34.644Z,997.03
2022-09-12T01:47:34.637Z,997.03
2022-09-12T01:48:34.705Z,997.07
2022-09-12T01:49:34.613Z,997.05
2022-09-12T01:50:34.612Z,997.05
2022-09-12T01:51:34.599Z,997.12
2022-09-12T01:52:34.595Z,997.10
2022-09-12T01:53:34.626Z,997.10
2022-09-12T01:54:34.579Z,997.02
2022-09-12T01:55:34.602Z,997.07
2022-09-12T01:56:34.564Z,997.09
2022-09-12T01:57:34.557Z,997.14
2022-09-12T01:58:34.640Z,997.03
2022-09-12T01:59:34.539Z,997.08
2022-09-12T02:00:34.532Z,997.00
2022-09-12T02:01:34.573Z,997.05
2022-09-12T02:02:34.516Z,997.07
2022-09-12T02:03:34.545Z,997.05
2022-09-12T02:04:34.561Z,997.09
2022-09-12T02:05:34.494Z,997.05
2022-09-12T02:06:34.484Z,997.08
2022-09-12T02:07:34.472Z,996.97
2022-09-12T02:08:34.509Z,997.06
2022-09-12T02:09:34.458Z,997.10
2022-09-12T02:10:34.460Z,997.03
2022-09-12T02:11:34.468Z,997.05
2022-09-12T02:12:34.440Z,997.02
2022-09-12T02:13:34.458Z,997.09
2022-09-12T02:14:34.426Z,997.08
2022-09-12T02:15:34.413Z,997.03
2022-09-12T02:16:34.586Z,997.06
2022-09-12T02:17:34.404Z,997.05
2022-09-12T02:18:34.456Z,997.01
2022-09-12T02:19:34.387Z,996.99
2022-09-12T02:20:49.278Z,996.96
2022-09-12T02:21:36.363Z,997.01
2022-09-12T02:22:34.359Z,997.02
2022-09-12T02:23:34.384Z,997.00
2022-09-12T02:24:34.345Z,997.02
2022-09-12T02:25:34.341Z,996.97
2022-09-12T02:26:34.350Z,996.96
2022-09-12T02:27:34.329Z,996.99
2022-09-12T02:28:34.340Z,996.96
2022-09-12T02:29:34.328Z,996.99
2022-09-12T02:30:34.334Z,996.96
2022-09-12T02:31:34.304Z,996.95
2022-09-12T02:32:34.314Z,997.05
2022-09-12T02:33:34.304Z,997.02
2022-09-12T02:34:34.274Z,997.01
2022-09-12T02:35:34.260Z,997.01
2022-09-12T02:36:34.259Z,996.99
2022-09-12T02:37:34.253Z,997.01
2022-09-12T02:38:34.262Z,996.99
2022-09-12T02:39:34.237Z,997.01
2022-09-12T02:40:34.222Z,996.90
2022-09-12T02:41:34.209Z,996.93
2022-09-12T02:42:34.214Z,996.94
2022-09-12T02:43:34.252Z,996.86
2022-09-12T02:44:34.197Z,996.87
2022-09-12T02:45:34.276Z,996.83
2022-09-12T02:46:34.175Z,996.88
2022-09-12T02:47:34.166Z,996.90
2022-09-12T02:48:34.188Z,996.83
2022-09-12T02:49:34.147Z,996.80
2022-09-12T02:50:34.140Z,996.85
2022-09-12T02:51:34.187Z,996.85
2022-09-12T02:52:34.158Z,996.92
2022-09-12T02:53:34.173Z,996.84
2022-09-12T02:54:34.111Z,996.87
2022-09-12T02:55:34.100Z,996.85
2022-09-12T02:56:34.102Z,996.90
2022-09-12T02:57:34.081Z,996.88
2022-09-12T02:58:34.101Z,996.90
2022-09-12T02:59:34.069Z,997.00
2022-09-12T03:00:34.066Z,996.82
2022-09-12T03:01:34.130Z,996.86
2022-09-12T03:02:34.049Z,996.88
2022-09-12T03:03:34.061Z,996.89
2022-09-12T03:04:35.537Z,996.85
2022-09-12T03:05:37.581Z,996.88
2022-09-12T03:06:35.951Z,996.83
2022-09-12T03:07:42.459Z,996.86
2022-09-12T03:08:35.948Z,996.86
2022-09-12T03:09:45.496Z,996.88
2022-09-12T03:10:35.448Z,996.88
2022-09-12T03:11:34.952Z,996.89
2022-09-12T03:12:34.071Z,996.87
2022-09-12T03:13:34.975Z,996.77
2022-09-12T03:14:37.542Z,996.84
2022-09-12T03:15:37.655Z,996.83
2022-09-12T03:16:39.009Z,996.85
2022-09-12T03:17:36.466Z,996.79
2022-09-12T03:18:36.535Z,996.84
2022-09-12T03:19:36.508Z,996.79
2022-09-12T03:20:35.542Z,996.85
2022-09-12T03:21:36.468Z,996.85
2022-09-12T03:22:35.660Z,996.76
2022-09-12T03:23:37.461Z,996.82
2022-09-12T03:24:36.454Z,996.86
2022-09-12T03:25:39.451Z,996.88
2022-09-12T03:26:37.455Z,996.87
2022-09-12T03:27:38.008Z,996.86
2022-09-12T03:28:34.564Z,996.85
2022-09-12T03:29:35.610Z,996.79
2022-09-12T03:30:35.160Z,996.75
2022-09-12T03:31:36.503Z,996.81
2022-09-12T03:32:36.503Z,996.81
2022-09-12T03:33:34.974Z,996.81
2022-09-12T03:34:35.152Z,996.73
2022-09-12T03:35:36.459Z,996.80
2022-09-12T03:36:35.455Z,996.75
2022-09-12T03:37:35.509Z,996.78
2022-09-12T03:38:37.999Z,996.74
2022-09-12T03:39:33.763Z,996.83
2022-09-12T03:40:33.757Z,996.79
2022-09-12T03:41:33.766Z,996.83
2022-09-12T03:42:33.763Z,996.84
2022-09-12T03:43:33.746Z,996.81
2022-09-12T03:44:33.774Z,996.84
2022-09-12T03:45:33.754Z,996.84
2022-09-12T03:46:33.729Z,996.83
2022-09-12T03:47:33.718Z,996.82
2022-09-12T03:48:33.714Z,996.77
2022-09-12T03:49:33.733Z,996.86
2022-09-12T03:50:33.684Z,996.79
2022-09-12T03:51:33.686Z,996.80
2022-09-12T03:52:33.679Z,996.77
2022-09-12T03:53:33.662Z,996.75
2022-09-12T03:54:33.691Z,996.75
2022-09-12T03:55:33.657Z,996.72
2022-09-12T03:56:33.658Z,996.80
2022-09-12T03:57:33.628Z,996.74
2022-09-12T03:58:33.652Z,996.70
2022-09-12T03:59:33.642Z,996.76
2022-09-12T04:00:33.663Z,996.83
2022-09-12T04:01:33.619Z,996.81
2022-09-12T04:02:33.625Z,996.74
2022-09-12T04:03:33.584Z,996.70
2022-09-12T04:04:33.608Z,996.71
2022-09-12T04:05:33.565Z,996.83
2022-09-12T04:06:33.562Z,996.83
2022-09-12T04:07:33.561Z,996.79
2022-09-12T04:08:33.548Z,996.80
2022-09-12T04:09:33.571Z,996.86
2022-09-12T04:10:33.538Z,996.90
2022-09-12T04:11:33.526Z,996.85
2022-09-12T04:12:33.580Z,996.92
2022-09-12T04:13:33.517Z,996.83
2022-09-12T04:14:33.573Z,996.86
2022-09-12T04:15:33.498Z,996.86
2022-09-12T04:16:33.571Z,996.87
2022-09-12T04:17:33.485Z,996.89
2022-09-12T04:18:33.474Z,996.89
2022-09-12T04:19:33.508Z,996.88
2022-09-12T04:20:33.464Z,996.93
2022-09-12T04:21:33.457Z,996.89
2022-09-12T04:22:33.529Z,996.89
2022-09-12T04:23:33.562Z,996.84
2022-09-12T04:24:33.461Z,996.95
2022-09-12T04:25:33.423Z,996.90
2022-09-12T04:26:33.416Z,996.85
2022-09-12T04:27:33.402Z,996.89
2022-09-12T04:28:33.393Z,996.89
2022-09-12T04:29:33.411Z,996.82
2022-09-12T04:30:33.416Z,996.86
2022-09-12T04:31:33.421Z,996.88
2022-09-12T04:32:33.364Z,996.90
2022-09-12T04:33:33.352Z,996.93
2022-09-12T04:34:33.369Z,996.91
2022-09-12T04:35:33.442Z,996.86
2022-09-12T04:36:33.333Z,996.89
2022-09-12T04:37:33.325Z,996.88
2022-09-12T04:38:33.314Z,996.86
2022-09-12T04:39:33.327Z,996.91
2022-09-12T04:40:33.303Z,996.86
2022-09-12T04:41:33.293Z,996.90
2022-09-12T04:42:33.285Z,996.84
2022-09-12T04:43:33.275Z,996.84
2022-09-12T04:44:33.289Z,996.83
2022-09-12T04:45:33.277Z,996.91
2022-09-12T04:46:33.252Z,996.84
2022-09-12T04:47:33.246Z,996.90
2022-09-12T04:48:33.236Z,996.87
2022-09-12T04:49:33.264Z,996.79
2022-09-12T04:50:33.218Z,996.83
2022-09-12T04:51:33.207Z,996.82
2022-09-12T04:52:34.206Z,996.83
2022-09-12T04:53:33.196Z,996.85
2022-09-12T04:54:33.209Z,996.79
2022-09-12T04:55:33.181Z,996.80
2022-09-12T04:56:33.173Z,996.79
2022-09-12T04:57:33.168Z,996.84
2022-09-12T04:58:33.199Z,996.83
2022-09-12T04:59:33.176Z,996.89
2022-09-12T05:00:33.141Z,996.92
2022-09-12T05:01:33.188Z,996.94
2022-09-12T05:02:33.150Z,996.96
2022-09-12T05:03:34.118Z,996.91
2022-09-12T05:04:33.149Z,996.96
2022-09-12T05:05:33.112Z,996.91
2022-09-12T05:06:33.102Z,996.89
2022-09-12T05:07:33.083Z,996.88
2022-09-12T05:08:33.088Z,996.91
2022-09-12T05:09:33.157Z,996.82
2022-09-12T05:10:33.066Z,996.88
2022-09-12T05:12:02.130Z,996.87
2022-09-12T05:12:35.047Z,996.97
2022-09-12T05:13:33.047Z,996.91
2022-09-12T05:14:33.132Z,996.94
2022-09-12T05:15:33.035Z,996.89
2022-09-12T05:16:33.047Z,996.96
2022-09-12T05:17:33.009Z,996.94
2022-09-12T05:18:32.999Z,996.97
2022-09-12T05:19:33.027Z,996.97
2022-09-12T05:20:32.978Z,996.97
2022-09-12T05:21:33.978Z,996.93
2022-09-12T05:22:32.978Z,996.96
2022-09-12T05:23:32.960Z,996.96
2022-09-12T05:24:32.994Z,996.99
2022-09-12T05:25:32.960Z,997.01
2022-09-12T05:26:32.941Z,996.96
2022-09-12T05:27:32.953Z,996.98
2022-09-12T05:28:32.935Z,997.02
2022-09-12T05:29:32.945Z,996.95
2022-09-12T05:30:32.954Z,997.05
2022-09-12T05:31:32.899Z,997.04
2022-09-12T05:32:32.888Z,997.08
2022-09-12T05:33:32.894Z,996.99
2022-09-12T05:34:32.901Z,997.02
2022-09-12T05:35:32.900Z,997.01
2022-09-12T05:36:32.867Z,997.11
2022-09-12T05:37:32.858Z,997.03
2022-09-12T05:38:32.842Z,997.03
2022-09-12T05:39:32.860Z,997.00
2022-09-12T05:40:32.832Z,997.04
2022-09-12T05:41:32.824Z,997.05
2022-09-12T05:42:32.810Z,997.12
2022-09-12T05:43:32.803Z,997.03
2022-09-12T05:44:32.828Z,997.01
2022-09-12T05:45:32.855Z,997.04
2022-09-12T05:46:32.784Z,997.03
2022-09-12T05:47:32.775Z,997.01
2022-09-12T05:48:32.762Z,997.03
2022-09-12T05:49:32.818Z,997.02
2022-09-12T05:50:32.747Z,997.04
2022-09-12T05:51:32.742Z,997.01
2022-09-12T05:52:32.738Z,997.07
2022-09-12T05:53:32.760Z,997.11
2022-09-12T05:54:32.719Z,997.11
2022-09-12T05:55:32.739Z,997.13
2022-09-12T05:56:32.705Z,997.08
2022-09-12T05:57:32.715Z,997.12
2022-09-12T05:58:32.692Z,997.21
2022-09-12T05:59:32.682Z,997.15
2022-09-12T06:00:33.661Z,997.15
2022-09-12T06:01:33.708Z,997.12
2022-09-12T06:02:32.697Z,997.12
2022-09-12T06:03:32.655Z,997.10
2022-09-12T06:04:32.642Z,997.08
2022-09-12T06:05:32.665Z,997.09
2022-09-12T06:06:32.632Z,997.09
2022-09-12T06:07:32.630Z,997.09
2022-09-12T06:08:32.616Z,997.10
2022-09-12T06:09:32.630Z,997.11
2022-09-12T06:10:32.636Z,997.11
2022-09-12T06:11:32.650Z,997.11
2022-09-12T06:12:32.591Z,997.12
2022-09-12T06:13:32.577Z,997.13
2022-09-12T06:14:32.572Z,997.11
2022-09-12T06:15:32.616Z,997.16
2022-09-12T06:16:32.682Z,997.17
2022-09-12T06:17:32.565Z,997.16
2022-09-12T06:18:32.538Z,997.08
2022-09-12T06:19:32.578Z,997.06
2022-09-12T06:20:32.554Z,997.10
2022-09-12T06:21:32.517Z,997.09
2022-09-12T06:22:32.514Z,997.10
2022-09-12T06:23:32.499Z,997.10
2022-09-12T06:24:32.495Z,997.12
2022-09-12T06:25:32.520Z,996.99
2022-09-12T06:26:32.480Z,997.10
2022-09-12T06:27:32.473Z,997.06
2022-09-12T06:28:32.460Z,997.17
2022-09-12T06:29:32.453Z,997.05
2022-09-12T06:30:32.498Z,997.13
2022-09-12T06:31:32.438Z,997.05
2022-09-12T06:32:32.428Z,997.13
2022-09-12T06:33:32.422Z,997.02
2022-09-12T06:34:32.412Z,997.05
2022-09-12T06:35:32.439Z,997.10
2022-09-12T06:36:32.397Z,997.05
2022-09-12T06:37:32.387Z,997.05
2022-09-12T06:38:32.385Z,997.06
2022-09-12T06:39:32.374Z,997.09
2022-09-12T06:40:32.417Z,997.09
2022-09-12T06:41:32.379Z,997.07
2022-09-12T06:42:32.353Z,997.06
2022-09-12T06:43:32.421Z,997.05
2022-09-12T06:44:32.334Z,997.09
2022-09-12T06:45:32.356Z,997.08
2022-09-12T06:46:32.344Z,997.09
2022-09-12T06:47:32.312Z,997.10
2022-09-12T06:48:32.300Z,997.08
2022-09-12T06:49:32.299Z,997.10
2022-09-12T06:50:32.310Z,997.11
2022-09-12T06:51:32.285Z,997.07
2022-09-12T06:52:32.284Z,997.09
2022-09-12T06:53:32.263Z,997.07
2022-09-12T06:54:32.256Z,997.03
2022-09-12T06:55:32.273Z,997.11
2022-09-12T06:56:32.247Z,997.07
2022-09-12T06:57:32.237Z,997.05
2022-09-12T06:58:32.229Z,997.04
2022-09-12T06:59:32.224Z,997.09
2022-09-12T07:00:32.240Z,997.05
2022-09-12T07:01:32.259Z,997.06
2022-09-12T07:02:32.263Z,997.02
2022-09-12T07:03:32.198Z,997.03
2022-09-12T07:04:32.181Z,997.02
2022-09-12T07:05:32.225Z,997.01
2022-09-12T07:06:32.311Z,997.09
2022-09-12T07:07:32.181Z,997.00
2022-09-12T07:08:32.146Z,996.98
2022-09-12T07:09:32.139Z,997.06
2022-09-12T07:10:32.161Z,997.05
2022-09-12T07:11:32.130Z,997.07
2022-09-12T07:12:32.120Z,997.11
2022-09-12T07:13:32.132Z,997.05
2022-09-12T07:14:32.111Z,997.02
2022-09-12T07:15:32.123Z,996.96
2022-09-12T07:16:32.170Z,996.99
2022-09-12T07:17:32.081Z,997.04
2022-09-12T07:18:32.086Z,996.98
2022-09-12T07:19:32.066Z,997.03
2022-09-12T07:20:32.084Z,996.88
2022-09-12T07:21:32.048Z,996.93
2022-09-12T07:22:32.047Z,996.94
2022-09-12T07:23:32.042Z,996.91
2022-09-12T07:24:32.024Z,996.95
2022-09-12T07:25:32.044Z,996.95
2022-09-12T07:26:32.029Z,997.00
2022-09-12T07:27:32.007Z,996.94
2022-09-12T07:28:31.995Z,997.03
2022-09-12T07:29:36.861Z,996.98
2022-09-12T07:30:34.057Z,996.98
2022-09-12T07:31:32.001Z,996.96
2022-09-12T07:32:31.965Z,996.94
2022-09-12T07:33:31.957Z,996.95
2022-09-12T07:34:31.948Z,996.94
2022-09-12T07:35:31.940Z,997.03
2022-09-12T07:36:32.248Z,997.00
2022-09-12T07:37:31.916Z,996.99
2022-09-12T07:38:32.940Z,996.97
2022-09-12T07:39:31.908Z,996.98
2022-09-12T07:40:31.902Z,996.98
2022-09-12T07:41:31.919Z,996.95
2022-09-12T07:42:31.887Z,996.87
2022-09-12T07:43:31.881Z,996.82
2022-09-12T07:44:31.882Z,996.90
2022-09-12T07:45:31.878Z,996.79
2022-09-12T07:46:31.888Z,996.88
2022-09-12T07:47:31.851Z,996.93
2022-09-12T07:48:31.845Z,996.86
2022-09-12T07:49:31.837Z,996.85
2022-09-12T07:50:31.848Z,996.94
2022-09-12T07:51:31.843Z,996.94
2022-09-12T07:52:31.800Z,996.96
2022-09-12T07:53:31.800Z,996.91
2022-09-12T07:54:31.786Z,996.84
2022-09-12T07:55:31.778Z,996.92
2022-09-12T07:56:35.711Z,996.93
2022-09-12T07:57:33.763Z,996.92
2022-09-12T07:58:31.763Z,996.90
2022-09-12T07:59:51.583Z,996.88
2022-09-12T08:00:33.743Z,996.88
2022-09-12T08:01:32.220Z,996.83
2022-09-12T08:02:31.848Z,996.89
2022-09-12T08:03:31.714Z,996.84
2022-09-12T08:04:31.707Z,996.83
2022-09-12T08:05:31.699Z,996.91
2022-09-12T08:06:31.722Z,996.87
2022-09-12T08:07:31.685Z,996.89
2022-09-12T08:08:31.678Z,996.86
2022-09-12T08:09:31.669Z,996.95
2022-09-12T08:10:31.666Z,996.99
2022-09-12T08:11:31.673Z,996.94
2022-09-12T08:12:31.648Z,996.94
2022-09-12T08:13:31.636Z,996.97
2022-09-12T08:14:31.630Z,996.94
2022-09-12T08:15:31.687Z,996.90
2022-09-12T08:16:31.640Z,996.97
2022-09-12T08:17:31.608Z,996.99
2022-09-12T08:18:31.605Z,997.01
2022-09-12T08:19:31.594Z,996.92
2022-09-12T08:20:31.592Z,996.99
2022-09-12T08:21:31.608Z,996.96
2022-09-12T08:22:31.570Z,996.89
2022-09-12T08:23:31.561Z,996.97
2022-09-12T08:24:31.562Z,996.96
2022-09-12T08:25:31.539Z,996.98
2022-09-12T08:26:31.567Z,996.90
2022-09-12T08:27:31.542Z,996.93
2022-09-12T08:28:31.530Z,996.95
2022-09-12T08:29:31.511Z,996.98
2022-09-12T08:30:31.568Z,996.98
2022-09-12T08:31:31.529Z,996.99
2022-09-12T08:32:31.488Z,997.02
2022-09-12T08:33:32.119Z,996.93
2022-09-12T08:34:31.473Z,997.01
2022-09-12T08:35:32.243Z,997.02
2022-09-12T08:36:31.488Z,997.02
2022-09-12T08:37:31.451Z,997.02
2022-09-12T08:38:31.446Z,997.06
2022-09-12T08:39:31.438Z,997.04
2022-09-12T08:40:31.422Z,996.97
2022-09-12T08:41:31.447Z,997.07
2022-09-12T08:42:31.413Z,997.01
2022-09-12T08:43:31.397Z,996.98
2022-09-12T08:44:31.395Z,996.97
2022-09-12T08:45:31.411Z,996.97
2022-09-12T08:46:31.404Z,996.93
2022-09-12T08:47:31.367Z,996.98
2022-09-12T08:48:31.360Z,996.99
2022-09-12T08:49:31.364Z,996.97
2022-09-12T08:50:32.349Z,996.98
2022-09-12T08:51:31.399Z,997.03
2022-09-12T08:52:31.336Z,996.90
2022-09-12T08:53:31.328Z,996.94
2022-09-12T08:54:31.322Z,997.03
2022-09-12T08:55:31.310Z,997.01
2022-09-12T08:56:31.830Z,996.98
2022-09-12T08:57:32.291Z,997.00
2022-09-12T08:58:31.284Z,997.02
2022-09-12T08:59:31.283Z,997.05
2022-09-12T09:00:31.272Z,997.04
2022-09-12T09:01:31.335Z,997.05
2022-09-12T09:02:31.343Z,997.05
2022-09-12T09:03:31.248Z,997.05
2022-09-12T09:04:31.242Z,997.11
2022-09-12T09:05:31.237Z,997.01
2022-09-12T09:06:31.306Z,997.01
2022-09-12T09:07:31.219Z,996.99
2022-09-12T09:08:31.210Z,996.95
2022-09-12T09:09:31.227Z,996.93
2022-09-12T09:10:31.198Z,996.86
2022-09-12T09:11:31.252Z,996.91
2022-09-12T09:12:31.176Z,996.84
2022-09-12T09:13:31.169Z,996.88
2022-09-12T09:14:31.168Z,996.83
2022-09-12T09:15:31.176Z,996.78
2022-09-12T09:16:31.184Z,996.72
2022-09-12T09:17:31.146Z,996.70
2022-09-12T09:18:31.127Z,996.71
2022-09-12T09:19:32.127Z,996.64
2022-09-12T09:20:31.123Z,996.71
2022-09-12T09:21:31.142Z,996.69
2022-09-12T09:22:31.113Z,996.71
2022-09-12T09:23:31.109Z,996.76
2022-09-12T09:24:31.100Z,996.77
2022-09-12T09:25:31.083Z,996.63
2022-09-12T09:26:31.119Z,996.66
2022-09-12T09:27:40.440Z,996.68
2022-09-12T09:28:33.062Z,996.66
2022-09-12T09:29:31.051Z,996.62
2022-09-12T09:30:31.053Z,996.60
2022-09-12T09:31:31.113Z,996.63
2022-09-12T09:32:31.025Z,996.64
2022-09-12T09:33:31.017Z,996.56
2022-09-12T09:34:31.014Z,996.57
2022-09-12T09:35:34.414Z,996.61
2022-09-12T09:36:33.017Z,996.45
2022-09-12T09:37:30.983Z,996.53
2022-09-12T09:38:30.992Z,996.52
2022-09-12T09:39:30.971Z,996.48
2022-09-12T09:40:30.967Z,996.50
2022-09-12T09:41:30.995Z,996.49
2022-09-12T09:42:30.960Z,996.50
2022-09-12T09:43:30.939Z,996.46
2022-09-12T09:44:30.942Z,996.47
2022-09-12T09:45:30.945Z,996.50
2022-09-12T09:46:31.109Z,996.50
2022-09-12T09:47:30.934Z,996.46
2022-09-12T09:48:30.897Z,996.34
2022-09-12T09:49:30.898Z,996.41
2022-09-12T09:50:30.885Z,996.37
2022-09-12T09:51:30.883Z,996.43
2022-09-12T09:52:30.892Z,996.35
2022-09-12T09:53:30.860Z,996.37
2022-09-12T09:54:30.847Z,996.34
2022-09-12T09:55:31.849Z,996.25
2022-09-12T09:56:30.849Z,996.31
2022-09-12T09:57:30.860Z,996.28
2022-09-12T09:58:30.820Z,996.27
2022-09-12T09:59:30.909Z,996.32
2022-09-12T10:00:30.813Z,996.31
2022-09-12T10:01:30.867Z,996.31
2022-09-12T10:02:30.838Z,996.34
2022-09-12T10:03:30.783Z,996.36
2022-09-12T10:04:30.847Z,996.33
2022-09-12T10:05:30.777Z,996.35
2022-09-12T10:06:30.763Z,996.26
2022-09-12T10:07:30.781Z,996.23
2022-09-12T10:08:30.752Z,996.22
2022-09-12T10:09:30.811Z,996.22
2022-09-12T10:10:30.728Z,996.09
2022-09-12T10:11:30.723Z,996.16
2022-09-12T10:12:30.743Z,996.06
2022-09-12T10:13:30.721Z,996.05
2022-09-12T10:14:30.713Z,996.04
2022-09-12T10:15:30.731Z,996.00
2022-09-12T10:16:30.684Z,995.91
2022-09-12T10:17:34.373Z,995.96
2022-09-12T10:18:31.670Z,995.95
2022-09-12T10:19:30.704Z,995.88
2022-09-12T10:20:30.650Z,995.97
2022-09-12T10:21:30.642Z,995.93
2022-09-12T10:22:30.662Z,995.93
2022-09-12T10:23:30.627Z,995.93
2022-09-12T10:24:30.622Z,995.91
2022-09-12T10:25:30.615Z,995.95
2022-09-12T10:26:30.610Z,995.85
2022-09-12T10:27:30.645Z,995.91
2022-09-12T10:28:30.593Z,995.95
2022-09-12T10:29:30.591Z,995.92
2022-09-12T10:30:30.626Z,995.90
2022-09-12T10:31:30.581Z,995.88
2022-09-12T10:32:31.227Z,995.91
2022-09-12T10:33:31.561Z,995.93
2022-09-12T10:34:30.576Z,995.94
2022-09-12T10:35:30.539Z,995.95
2022-09-12T10:36:30.540Z,995.91
2022-09-12T10:37:30.560Z,995.95
2022-09-12T10:38:30.520Z,995.93
2022-09-12T10:39:30.516Z,995.92
2022-09-12T10:40:30.551Z,995.91
2022-09-12T10:41:30.501Z,995.93
2022-09-12T10:42:30.517Z,995.96
2022-09-12T10:43:30.551Z,995.96
2022-09-12T10:44:30.480Z,995.94
2022-09-12T10:45:30.483Z,995.90
2022-09-12T10:46:30.463Z,995.81
2022-09-12T10:47:30.489Z,995.86
2022-09-12T10:48:30.457Z,995.84
2022-09-12T10:49:30.443Z,995.90
2022-09-12T10:50:30.432Z,995.88
2022-09-12T10:51:30.427Z,995.84
2022-09-12T10:52:30.441Z,995.79
2022-09-12T10:53:34.335Z,995.85
2022-09-12T10:54:31.426Z,995.83
2022-09-12T10:55:30.399Z,995.86
2022-09-12T10:56:30.384Z,995.85
2022-09-12T10:57:30.377Z,995.83
2022-09-12T10:58:30.402Z,995.80
2022-09-12T10:59:30.370Z,995.78
2022-09-12T11:00:30.363Z,995.82
2022-09-12T11:01:30.406Z,995.76
2022-09-12T11:02:30.415Z,995.73
2022-09-12T11:03:30.362Z,995.76
2022-09-12T11:04:30.324Z,995.76
2022-09-12T11:05:30.323Z,995.75
2022-09-12T11:06:30.323Z,995.71
2022-09-12T11:07:30.326Z,995.75
2022-09-12T11:08:30.329Z,995.73
2022-09-12T11:09:30.288Z,995.75
2022-09-12T11:10:35.736Z,995.78
2022-09-12T11:11:32.278Z,995.72
2022-09-12T11:12:30.253Z,995.70
2022-09-12T11:13:31.292Z,995.75
2022-09-12T11:14:30.250Z,995.80
2022-09-12T11:15:30.386Z,995.74
2022-09-12T11:16:30.231Z,995.73
2022-09-12T11:17:30.225Z,995.72
2022-09-12T11:18:30.254Z,995.74
2022-09-12T11:19:30.211Z,995.76
2022-09-12T11:20:30.208Z,995.69
2022-09-12T11:21:30.210Z,995.63
2022-09-12T11:22:32.096Z,995.67
2022-09-12T11:23:31.210Z,995.61
2022-09-12T11:24:30.180Z,995.60
2022-09-12T11:25:30.191Z,995.63
2022-09-12T11:26:30.164Z,995.63
2022-09-12T11:27:30.160Z,995.62
2022-09-12T11:28:30.167Z,995.55
2022-09-12T11:29:30.138Z,995.59
2022-09-12T11:30:30.213Z,995.54
2022-09-12T11:31:30.115Z,995.56
2022-09-12T11:32:30.200Z,995.58
2022-09-12T11:33:30.151Z,995.50
2022-09-12T11:34:30.091Z,995.48
2022-09-12T11:35:30.092Z,995.56
2022-09-12T11:36:30.077Z,995.50
2022-09-12T11:37:30.081Z,995.49
2022-09-12T11:38:30.091Z,995.57
2022-09-12T11:39:30.053Z,995.52
2022-09-12T11:40:30.133Z,995.49
2022-09-12T11:41:30.041Z,995.53
2022-09-12T11:42:30.038Z,995.53
2022-09-12T11:43:30.047Z,995.44
2022-09-12T11:44:30.014Z,995.50
2022-09-12T11:45:30.005Z,995.46
2022-09-12T11:46:30.001Z,995.54
2022-09-12T11:47:29.999Z,995.50
2022-09-12T11:48:30.004Z,995.49
2022-09-12T11:49:34.785Z,995.52
2022-09-12T11:50:30.964Z,995.51
2022-09-12T11:51:29.961Z,995.46
2022-09-12T11:52:29.947Z,995.47
2022-09-12T11:53:29.973Z,995.47
2022-09-12T11:54:29.940Z,995.40
2022-09-12T11:55:29.988Z,995.43
2022-09-12T11:56:29.936Z,995.48
2022-09-12T11:57:29.914Z,995.43
2022-09-12T11:58:29.931Z,995.43
2022-09-12T11:59:29.935Z,995.37
2022-09-12T12:00:29.886Z,995.45
2022-09-12T12:01:29.882Z,995.50
2022-09-12T12:02:29.954Z,995.45
2022-09-12T12:03:29.969Z,995.42
2022-09-12T12:04:29.873Z,995.33
2022-09-12T12:05:29.845Z,995.40
2022-09-12T12:06:29.838Z,995.40
2022-09-12T12:07:29.828Z,995.33
2022-09-12T12:08:29.864Z,995.38
2022-09-12T12:09:29.818Z,995.40
2022-09-12T12:10:29.826Z,995.37
2022-09-12T12:11:29.797Z,995.37
2022-09-12T12:12:29.808Z,995.38
2022-09-12T12:13:29.808Z,995.32
2022-09-12T12:14:29.778Z,995.33
2022-09-12T12:15:29.794Z,995.35
2022-09-12T12:16:29.784Z,995.38
2022-09-12T12:17:29.764Z,995.30
2022-09-12T12:18:29.780Z,995.29
2022-09-12T12:19:29.739Z,995.28
2022-09-12T12:20:29.733Z,995.31
2022-09-12T12:21:29.723Z,995.31
2022-09-12T12:22:29.712Z,995.33
2022-09-12T12:23:29.712Z,995.30
2022-09-12T12:24:29.726Z,995.24
2022-09-12T12:25:30.131Z,995.19
2022-09-12T12:26:30.701Z,995.18
2022-09-12T12:27:29.674Z,995.21
2022-09-12T12:28:29.705Z,995.24